sensor_id;sensor_type;location;lat;lon;timestamp;temperature;humidity
21429;DHT22;10875;50.444;30.540;2022-08-06T00:00:35;20.20;99.90
21429;DHT22;10875;50.444;30.540;2022-08-06T00:03:01;20.20;99.90
21429;DHT22;10875;50.444;30.540;2022-08-06T00:05:28;20.20;99.90
21429;DHT22;10875;50.444;30.540;2022-08-06T00:07:54;20.20;99.90
21429;DHT22;10875;50.444;30.540;2022-08-06T00:10:22;20.00;99.90
21429;DHT22;10875;50.444;30.540;2022-08-06T00:12:48;20.10;99.90
21429;DHT22;10875;50.444;30.540;2022-08-06T00:15:15;20.10;99.90
21429;DHT22;10875;50.444;30.540;2022-08-06T00:17:44;20.10;99.90
21429;DHT22;10875;50.444;30.540;2022-08-06T00:20:10;20.00;99.90
21429;DHT22;10875;50.444;30.540;2022-08-06T00:22:37;19.90;99.90
21429;DHT22;10875;50.444;30.540;2022-08-06T00:25:03;19.90;99.90
21429;DHT22;10875;50.444;30.540;2022-08-06T00:27:29;19.90;99.90
21429;DHT22;10875;50.444;30.540;2022-08-06T00:29:55;19.90;99.90
21429;DHT22;10875;50.444;30.540;2022-08-06T00:32:20;19.90;99.90
21429;DHT22;10875;50.444;30.540;2022-08-06T00:34:46;19.90;99.90
21429;DHT22;10875;50.444;30.540;2022-08-06T00:37:12;19.90;99.90
21429;DHT22;10875;50.444;30.540;2022-08-06T00:39:37;19.90;99.90
21429;DHT22;10875;50.444;30.540;2022-08-06T00:42:03;19.90;99.90
21429;DHT22;10875;50.444;30.540;2022-08-06T00:44:29;19.90;99.90
21429;DHT22;10875;50.444;30.540;2022-08-06T00:46:54;19.90;99.90
21429;DHT22;10875;50.444;30.540;2022-08-06T00:49:20;19.90;99.90
21429;DHT22;10875;50.444;30.540;2022-08-06T00:51:46;19.90;99.90
21429;DHT22;10875;50.444;30.540;2022-08-06T00:54:11;20.00;99.90
21429;DHT22;10875;50.444;30.540;2022-08-06T00:56:37;20.00;99.90
21429;DHT22;10875;50.444;30.540;2022-08-06T00:59:03;20.00;99.90
21429;DHT22;10875;50.444;30.540;2022-08-06T01:01:29;20.00;99.90
21429;DHT22;10875;50.444;30.540;2022-08-06T01:03:55;20.00;99.90
21429;DHT22;10875;50.444;30.540;2022-08-06T01:06:21;20.00;99.90
21429;DHT22;10875;50.444;30.540;2022-08-06T01:08:47;20.00;99.90
21429;DHT22;10875;50.444;30.540;2022-08-06T01:11:13;20.00;99.90
21429;DHT22;10875;50.444;30.540;2022-08-06T01:13:38;20.00;99.90
21429;DHT22;10875;50.444;30.540;2022-08-06T01:29:48;19.90;99.90
21429;DHT22;10875;50.444;30.540;2022-08-06T01:32:20;19.90;99.90
21429;DHT22;10875;50.444;30.540;2022-08-06T01:34:53;19.90;99.90
21429;DHT22;10875;50.444;30.540;2022-08-06T01:37:32;19.80;99.90
21429;DHT22;10875;50.444;30.540;2022-08-06T01:40:03;19.90;99.90
21429;DHT22;10875;50.444;30.540;2022-08-06T01:42:30;19.80;99.90
21429;DHT22;10875;50.444;30.540;2022-08-06T01:44:59;19.80;99.90
21429;DHT22;10875;50.444;30.540;2022-08-06T01:47:30;19.80;99.90
21429;DHT22;10875;50.444;30.540;2022-08-06T01:49:59;19.80;99.90
21429;DHT22;10875;50.444;30.540;2022-08-06T01:52:27;19.80;99.90
21429;DHT22;10875;50.444;30.540;2022-08-06T01:54:54;19.70;99.90
21429;DHT22;10875;50.444;30.540;2022-08-06T01:57:24;19.70;99.90
21429;DHT22;10875;50.444;30.540;2022-08-06T01:59:53;19.70;99.90
21429;DHT22;10875;50.444;30.540;2022-08-06T02:02:23;19.70;99.90
21429;DHT22;10875;50.444;30.540;2022-08-06T02:04:51;19.70;99.90
21429;DHT22;10875;50.444;30.540;2022-08-06T02:07:20;19.70;99.90
21429;DHT22;10875;50.444;30.540;2022-08-06T02:09:48;19.70;99.90
21429;DHT22;10875;50.444;30.540;2022-08-06T02:12:19;19.70;99.90
21429;DHT22;10875;50.444;30.540;2022-08-06T02:17:38;19.70;99.90
21429;DHT22;10875;50.444;30.540;2022-08-06T02:20:06;19.70;99.90
21429;DHT22;10875;50.444;30.540;2022-08-06T02:22:37;19.70;99.90
21429;DHT22;10875;50.444;30.540;2022-08-06T02:25:06;19.60;99.90
21429;DHT22;10875;50.444;30.540;2022-08-06T02:27:34;19.70;99.90
21429;DHT22;10875;50.444;30.540;2022-08-06T02:30:01;19.70;99.90
21429;DHT22;10875;50.444;30.540;2022-08-06T02:32:27;19.70;99.90
21429;DHT22;10875;50.444;30.540;2022-08-06T02:34:53;19.70;99.90
21429;DHT22;10875;50.444;30.540;2022-08-06T02:37:23;19.70;99.90
21429;DHT22;10875;50.444;30.540;2022-08-06T02:39:54;19.70;99.90
21429;DHT22;10875;50.444;30.540;2022-08-06T02:42:32;19.70;99.90
21429;DHT22;10875;50.444;30.540;2022-08-06T02:47:50;19.70;99.90
21429;DHT22;10875;50.444;30.540;2022-08-06T02:50:19;19.70;99.90
21429;DHT22;10875;50.444;30.540;2022-08-06T02:52:55;19.60;99.90
21429;DHT22;10875;50.444;30.540;2022-08-06T02:55:25;19.60;99.90
21429;DHT22;10875;50.444;30.540;2022-08-06T02:58:11;19.60;99.90
21429;DHT22;10875;50.444;30.540;2022-08-06T03:00:41;19.60;99.90
21429;DHT22;10875;50.444;30.540;2022-08-06T03:03:07;19.60;99.90
21429;DHT22;10875;50.444;30.540;2022-08-06T03:05:34;19.60;99.90
21429;DHT22;10875;50.444;30.540;2022-08-06T03:08:02;19.60;99.90
21429;DHT22;10875;50.444;30.540;2022-08-06T03:10:33;19.50;99.90
21429;DHT22;10875;50.444;30.540;2022-08-06T03:12:59;19.50;99.90
21429;DHT22;10875;50.444;30.540;2022-08-06T03:15:29;19.40;99.90
21429;DHT22;10875;50.444;30.540;2022-08-06T03:17:55;19.40;99.90
21429;DHT22;10875;50.444;30.540;2022-08-06T03:20:26;19.40;99.90
21429;DHT22;10875;50.444;30.540;2022-08-06T03:22:56;19.40;99.90
21429;DHT22;10875;50.444;30.540;2022-08-06T03:25:25;19.40;99.90
21429;DHT22;10875;50.444;30.540;2022-08-06T03:27:52;19.50;99.90
21429;DHT22;10875;50.444;30.540;2022-08-06T03:30:20;19.50;99.90
21429;DHT22;10875;50.444;30.540;2022-08-06T03:32:46;19.60;99.90
21429;DHT22;10875;50.444;30.540;2022-08-06T03:35:12;19.50;99.90
21429;DHT22;10875;50.444;30.540;2022-08-06T03:37:38;19.60;99.90
21429;DHT22;10875;50.444;30.540;2022-08-06T03:40:05;19.60;99.90
21429;DHT22;10875;50.444;30.540;2022-08-06T03:42:33;19.70;99.90
21429;DHT22;10875;50.444;30.540;2022-08-06T03:44:59;19.70;99.90
21429;DHT22;10875;50.444;30.540;2022-08-06T03:47:30;19.70;99.90
21429;DHT22;10875;50.444;30.540;2022-08-06T03:50:10;19.80;99.90
21429;DHT22;10875;50.444;30.540;2022-08-06T03:52:48;19.80;99.90
21429;DHT22;10875;50.444;30.540;2022-08-06T03:55:19;19.80;99.90
21429;DHT22;10875;50.444;30.540;2022-08-06T03:57:47;19.90;99.90
21429;DHT22;10875;50.444;30.540;2022-08-06T04:00:15;19.90;99.90
21429;DHT22;10875;50.444;30.540;2022-08-06T04:02:49;19.90;99.90
21429;DHT22;10875;50.444;30.540;2022-08-06T04:05:21;20.00;99.90
21429;DHT22;10875;50.444;30.540;2022-08-06T04:07:50;20.00;99.90
21429;DHT22;10875;50.444;30.540;2022-08-06T04:10:17;20.00;99.90
21429;DHT22;10875;50.444;30.540;2022-08-06T04:12:44;20.10;99.90
21429;DHT22;10875;50.444;30.540;2022-08-06T04:15:12;20.10;99.90
21429;DHT22;10875;50.444;30.540;2022-08-06T04:17:39;20.10;99.90
21429;DHT22;10875;50.444;30.540;2022-08-06T04:20:11;20.20;99.90
21429;DHT22;10875;50.444;30.540;2022-08-06T04:22:39;20.20;99.90
21429;DHT22;10875;50.444;30.540;2022-08-06T04:25:05;20.30;99.90
21429;DHT22;10875;50.444;30.540;2022-08-06T04:27:31;20.30;99.90
21429;DHT22;10875;50.444;30.540;2022-08-06T04:29:58;20.40;99.90
21429;DHT22;10875;50.444;30.540;2022-08-06T04:32:26;20.40;99.90
21429;DHT22;10875;50.444;30.540;2022-08-06T04:34:52;20.30;99.90
21429;DHT22;10875;50.444;30.540;2022-08-06T04:37:18;20.40;99.90
21429;DHT22;10875;50.444;30.540;2022-08-06T04:39:45;20.50;99.90
21429;DHT22;10875;50.444;30.540;2022-08-06T04:42:10;20.50;99.90
21429;DHT22;10875;50.444;30.540;2022-08-06T04:44:37;20.60;99.90
21429;DHT22;10875;50.444;30.540;2022-08-06T04:47:04;20.70;99.90
21429;DHT22;10875;50.444;30.540;2022-08-06T04:49:30;20.70;99.90
21429;DHT22;10875;50.444;30.540;2022-08-06T04:51:56;20.70;99.90
21429;DHT22;10875;50.444;30.540;2022-08-06T04:54:22;20.80;99.90
21429;DHT22;10875;50.444;30.540;2022-08-06T04:56:47;20.80;99.90
21429;DHT22;10875;50.444;30.540;2022-08-06T04:59:13;20.90;99.90
21429;DHT22;10875;50.444;30.540;2022-08-06T05:01:39;20.90;99.90
21429;DHT22;10875;50.444;30.540;2022-08-06T05:04:05;21.00;99.90
21429;DHT22;10875;50.444;30.540;2022-08-06T05:06:49;21.10;99.90
21429;DHT22;10875;50.444;30.540;2022-08-06T05:09:24;21.20;99.90
21429;DHT22;10875;50.444;30.540;2022-08-06T05:12:05;21.20;99.90
21429;DHT22;10875;50.444;30.540;2022-08-06T05:15:08;21.20;99.90
21429;DHT22;10875;50.444;30.540;2022-08-06T05:17:40;21.30;99.90
21429;DHT22;10875;50.444;30.540;2022-08-06T05:20:24;21.40;99.90
21429;DHT22;10875;50.444;30.540;2022-08-06T05:23:02;21.40;99.90
21429;DHT22;10875;50.444;30.540;2022-08-06T05:25:28;21.50;99.90
21429;DHT22;10875;50.444;30.540;2022-08-06T05:27:54;21.40;99.90
21429;DHT22;10875;50.444;30.540;2022-08-06T05:30:20;21.50;99.90
21429;DHT22;10875;50.444;30.540;2022-08-06T05:32:48;21.50;99.90
21429;DHT22;10875;50.444;30.540;2022-08-06T05:35:14;21.60;99.90
21429;DHT22;10875;50.444;30.540;2022-08-06T05:37:40;21.60;99.90
21429;DHT22;10875;50.444;30.540;2022-08-06T05:40:07;21.60;99.90
21429;DHT22;10875;50.444;30.540;2022-08-06T05:42:34;21.70;99.90
21429;DHT22;10875;50.444;30.540;2022-08-06T05:44:59;21.80;99.90
21429;DHT22;10875;50.444;30.540;2022-08-06T05:47:28;21.90;99.90
21429;DHT22;10875;50.444;30.540;2022-08-06T05:50:18;21.80;99.90
21429;DHT22;10875;50.444;30.540;2022-08-06T05:52:52;22.00;99.90
21429;DHT22;10875;50.444;30.540;2022-08-06T05:55:27;22.10;99.90
21429;DHT22;10875;50.444;30.540;2022-08-06T05:58:01;22.20;99.90
21429;DHT22;10875;50.444;30.540;2022-08-06T06:00:30;22.20;99.90
21429;DHT22;10875;50.444;30.540;2022-08-06T06:02:59;22.20;99.90
21429;DHT22;10875;50.444;30.540;2022-08-06T06:05:25;22.30;99.90
21429;DHT22;10875;50.444;30.540;2022-08-06T06:07:51;22.40;99.90
21429;DHT22;10875;50.444;30.540;2022-08-06T06:10:18;22.50;99.90
21429;DHT22;10875;50.444;30.540;2022-08-06T06:12:44;22.60;99.90
21429;DHT22;10875;50.444;30.540;2022-08-06T06:15:12;22.60;99.90
21429;DHT22;10875;50.444;30.540;2022-08-06T06:20:42;22.70;99.90
21429;DHT22;10875;50.444;30.540;2022-08-06T06:28:33;22.90;99.90
21429;DHT22;10875;50.444;30.540;2022-08-06T06:31:11;23.00;99.90
21429;DHT22;10875;50.444;30.540;2022-08-06T06:33:50;23.20;99.90
21429;DHT22;10875;50.444;30.540;2022-08-06T06:36:27;23.30;99.90
21429;DHT22;10875;50.444;30.540;2022-08-06T06:39:08;23.30;99.90
21429;DHT22;10875;50.444;30.540;2022-08-06T06:41:42;23.40;99.90
21429;DHT22;10875;50.444;30.540;2022-08-06T06:44:23;23.50;99.90
21429;DHT22;10875;50.444;30.540;2022-08-06T06:47:06;23.50;99.90
21429;DHT22;10875;50.444;30.540;2022-08-06T06:49:45;23.60;99.90
21429;DHT22;10875;50.444;30.540;2022-08-06T06:52:26;23.70;99.90
21429;DHT22;10875;50.444;30.540;2022-08-06T06:55:07;23.80;99.90
21429;DHT22;10875;50.444;30.540;2022-08-06T06:57:36;23.90;99.90
21429;DHT22;10875;50.444;30.540;2022-08-06T07:00:04;23.90;99.90
21429;DHT22;10875;50.444;30.540;2022-08-06T07:02:33;24.00;99.90
21429;DHT22;10875;50.444;30.540;2022-08-06T07:05:02;24.00;99.90
21429;DHT22;10875;50.444;30.540;2022-08-06T07:07:33;24.20;99.90
21429;DHT22;10875;50.444;30.540;2022-08-06T07:09:59;24.20;99.90
21429;DHT22;10875;50.444;30.540;2022-08-06T07:12:27;24.20;99.90
21429;DHT22;10875;50.444;30.540;2022-08-06T07:14:54;24.20;99.90
21429;DHT22;10875;50.444;30.540;2022-08-06T07:17:22;24.20;99.90
21429;DHT22;10875;50.444;30.540;2022-08-06T07:19:51;24.20;99.90
21429;DHT22;10875;50.444;30.540;2022-08-06T07:22:19;24.30;99.90
21429;DHT22;10875;50.444;30.540;2022-08-06T07:24:46;24.30;99.90
21429;DHT22;10875;50.444;30.540;2022-08-06T07:27:12;24.40;99.90
21429;DHT22;10875;50.444;30.540;2022-08-06T07:29:40;24.50;99.90
21429;DHT22;10875;50.444;30.540;2022-08-06T07:32:08;24.60;99.90
21429;DHT22;10875;50.444;30.540;2022-08-06T07:34:34;24.80;99.90
21429;DHT22;10875;50.444;30.540;2022-08-06T07:37:00;25.00;99.90
21429;DHT22;10875;50.444;30.540;2022-08-06T07:39:35;25.10;99.90
21429;DHT22;10875;50.444;30.540;2022-08-06T07:42:07;25.20;99.90
21429;DHT22;10875;50.444;30.540;2022-08-06T07:44:38;25.30;99.90
21429;DHT22;10875;50.444;30.540;2022-08-06T07:47:06;25.40;99.90
21429;DHT22;10875;50.444;30.540;2022-08-06T07:49:41;25.50;99.90
21429;DHT22;10875;50.444;30.540;2022-08-06T07:52:09;25.60;99.90
21429;DHT22;10875;50.444;30.540;2022-08-06T07:54:37;25.70;99.90
21429;DHT22;10875;50.444;30.540;2022-08-06T07:57:04;25.80;99.90
21429;DHT22;10875;50.444;30.540;2022-08-06T07:59:31;26.00;99.90
21429;DHT22;10875;50.444;30.540;2022-08-06T08:01:59;26.10;99.90
21429;DHT22;10875;50.444;30.540;2022-08-06T08:04:26;26.20;99.90
21429;DHT22;10875;50.444;30.540;2022-08-06T08:07:11;26.30;99.90
21429;DHT22;10875;50.444;30.540;2022-08-06T08:09:38;26.30;99.90
21429;DHT22;10875;50.444;30.540;2022-08-06T08:12:05;26.40;99.90
21429;DHT22;10875;50.444;30.540;2022-08-06T08:14:32;26.50;99.90
21429;DHT22;10875;50.444;30.540;2022-08-06T08:16:59;26.60;99.90
21429;DHT22;10875;50.444;30.540;2022-08-06T08:19:32;26.70;99.90
21429;DHT22;10875;50.444;30.540;2022-08-06T08:21:59;26.90;99.90
21429;DHT22;10875;50.444;30.540;2022-08-06T08:24:26;26.90;99.90
21429;DHT22;10875;50.444;30.540;2022-08-06T08:26:52;26.80;99.90
21429;DHT22;10875;50.444;30.540;2022-08-06T08:29:18;26.90;99.90
21429;DHT22;10875;50.444;30.540;2022-08-06T08:31:44;27.00;99.90
21429;DHT22;10875;50.444;30.540;2022-08-06T08:34:10;27.20;99.90
21429;DHT22;10875;50.444;30.540;2022-08-06T08:36:37;27.40;99.90
21429;DHT22;10875;50.444;30.540;2022-08-06T08:39:03;27.70;99.90
21429;DHT22;10875;50.444;30.540;2022-08-06T08:44:32;28.10;99.90
21429;DHT22;10875;50.444;30.540;2022-08-06T08:46:59;28.10;99.90
21429;DHT22;10875;50.444;30.540;2022-08-06T08:49:37;28.20;99.90
21429;DHT22;10875;50.444;30.540;2022-08-06T08:52:05;28.50;99.90
21429;DHT22;10875;50.444;30.540;2022-08-06T08:54:35;28.80;99.90
21429;DHT22;10875;50.444;30.540;2022-08-06T08:57:02;29.00;99.90
21429;DHT22;10875;50.444;30.540;2022-08-06T08:59:29;29.30;99.90
21429;DHT22;10875;50.444;30.540;2022-08-06T09:01:55;29.30;99.90
21429;DHT22;10875;50.444;30.540;2022-08-06T09:04:21;29.30;99.90
21429;DHT22;10875;50.444;30.540;2022-08-06T09:06:47;29.10;99.90
21429;DHT22;10875;50.444;30.540;2022-08-06T09:09:13;29.00;99.90
21429;DHT22;10875;50.444;30.540;2022-08-06T09:11:39;29.10;99.90
21429;DHT22;10875;50.444;30.540;2022-08-06T09:14:09;28.70;99.90
21429;DHT22;10875;50.444;30.540;2022-08-06T09:16:35;28.70;99.90
21429;DHT22;10875;50.444;30.540;2022-08-06T09:19:03;28.70;99.90
21429;DHT22;10875;50.444;30.540;2022-08-06T09:21:29;28.90;99.90
21429;DHT22;10875;50.444;30.540;2022-08-06T09:23:55;29.10;99.90
21429;DHT22;10875;50.444;30.540;2022-08-06T09:26:21;29.40;99.90
21429;DHT22;10875;50.444;30.540;2022-08-06T09:28:47;29.50;99.90
21429;DHT22;10875;50.444;30.540;2022-08-06T09:31:18;29.70;99.90
21429;DHT22;10875;50.444;30.540;2022-08-06T09:34:02;29.80;99.90
21429;DHT22;10875;50.444;30.540;2022-08-06T09:36:41;29.80;99.90
21429;DHT22;10875;50.444;30.540;2022-08-06T09:39:07;29.70;99.90
21429;DHT22;10875;50.444;30.540;2022-08-06T09:41:33;29.70;99.90
21429;DHT22;10875;50.444;30.540;2022-08-06T09:44:09;29.40;99.90
21429;DHT22;10875;50.444;30.540;2022-08-06T09:46:46;29.20;99.90
21429;DHT22;10875;50.444;30.540;2022-08-06T09:49:13;29.30;99.90
21429;DHT22;10875;50.444;30.540;2022-08-06T09:51:41;29.40;99.90
21429;DHT22;10875;50.444;30.540;2022-08-06T09:54:08;29.50;99.90
21429;DHT22;10875;50.444;30.540;2022-08-06T09:56:36;29.50;99.90
21429;DHT22;10875;50.444;30.540;2022-08-06T09:59:03;29.50;99.90
21429;DHT22;10875;50.444;30.540;2022-08-06T10:01:29;29.60;99.90
21429;DHT22;10875;50.444;30.540;2022-08-06T10:04:02;29.60;99.90
21429;DHT22;10875;50.444;30.540;2022-08-06T10:06:28;29.60;99.90
21429;DHT22;10875;50.444;30.540;2022-08-06T10:09:11;29.70;99.90
21429;DHT22;10875;50.444;30.540;2022-08-06T10:11:39;29.80;99.90
21429;DHT22;10875;50.444;30.540;2022-08-06T10:14:06;30.10;99.90
21429;DHT22;10875;50.444;30.540;2022-08-06T10:17:15;30.50;99.90
21429;DHT22;10875;50.444;30.540;2022-08-06T10:19:43;30.20;99.90
21429;DHT22;10875;50.444;30.540;2022-08-06T10:24:39;29.80;99.90
21429;DHT22;10875;50.444;30.540;2022-08-06T10:27:10;30.00;99.90
21429;DHT22;10875;50.444;30.540;2022-08-06T10:32:46;30.70;99.90
21429;DHT22;10875;50.444;30.540;2022-08-06T10:35:16;30.90;99.90
21429;DHT22;10875;50.444;30.540;2022-08-06T10:37:44;30.70;99.90
21429;DHT22;10875;50.444;30.540;2022-08-06T10:40:13;30.40;99.90
21429;DHT22;10875;50.444;30.540;2022-08-06T10:42:40;30.70;99.90
21429;DHT22;10875;50.444;30.540;2022-08-06T10:45:08;30.90;99.90
21429;DHT22;10875;50.444;30.540;2022-08-06T10:47:35;30.90;99.90
21429;DHT22;10875;50.444;30.540;2022-08-06T10:50:02;30.70;99.90
21429;DHT22;10875;50.444;30.540;2022-08-06T10:52:28;31.00;99.90
21429;DHT22;10875;50.444;30.540;2022-08-06T10:54:54;31.40;99.90
21429;DHT22;10875;50.444;30.540;2022-08-06T10:57:22;31.70;99.60
21429;DHT22;10875;50.444;30.540;2022-08-06T10:59:47;31.80;99.20
21429;DHT22;10875;50.444;30.540;2022-08-06T11:05:11;31.80;97.60
21429;DHT22;10875;50.444;30.540;2022-08-06T11:13:47;31.70;98.40
21429;DHT22;10875;50.444;30.540;2022-08-06T11:16:25;32.10;98.60
21429;DHT22;10875;50.444;30.540;2022-08-06T11:19:07;32.50;98.10
21429;DHT22;10875;50.444;30.540;2022-08-06T11:21:38;32.80;97.50
21429;DHT22;10875;50.444;30.540;2022-08-06T11:24:04;33.00;96.40
21429;DHT22;10875;50.444;30.540;2022-08-06T11:26:36;33.00;95.80
21429;DHT22;10875;50.444;30.540;2022-08-06T11:29:03;33.10;96.30
21429;DHT22;10875;50.444;30.540;2022-08-06T11:31:34;33.10;95.90
21429;DHT22;10875;50.444;30.540;2022-08-06T11:34:02;33.10;95.50
21429;DHT22;10875;50.444;30.540;2022-08-06T11:36:52;33.00;95.20
21429;DHT22;10875;50.444;30.540;2022-08-06T11:39:19;33.10;94.90
21429;DHT22;10875;50.444;30.540;2022-08-06T11:42:03;32.70;95.10
21429;DHT22;10875;50.444;30.540;2022-08-06T11:44:31;32.70;95.10
21429;DHT22;10875;50.444;30.540;2022-08-06T11:47:09;32.90;94.90
21429;DHT22;10875;50.444;30.540;2022-08-06T11:49:36;33.10;95.10
21429;DHT22;10875;50.444;30.540;2022-08-06T11:52:02;33.00;93.90
21429;DHT22;10875;50.444;30.540;2022-08-06T11:54:30;32.80;94.00
21429;DHT22;10875;50.444;30.540;2022-08-06T11:59:37;32.40;94.40
21429;DHT22;10875;50.444;30.540;2022-08-06T12:02:09;32.30;94.60
21429;DHT22;10875;50.444;30.540;2022-08-06T12:07:24;31.90;95.10
21429;DHT22;10875;50.444;30.540;2022-08-06T12:14:51;32.00;95.80
21429;DHT22;10875;50.444;30.540;2022-08-06T12:17:21;32.20;95.00
21429;DHT22;10875;50.444;30.540;2022-08-06T12:19:52;32.40;94.60
21429;DHT22;10875;50.444;30.540;2022-08-06T12:22:20;32.20;94.20
21429;DHT22;10875;50.444;30.540;2022-08-06T12:24:50;31.70;94.80
21429;DHT22;10875;50.444;30.540;2022-08-06T12:27:16;31.10;95.40
21429;DHT22;10875;50.444;30.540;2022-08-06T12:29:43;30.60;95.90
21429;DHT22;10875;50.444;30.540;2022-08-06T12:32:32;30.20;96.60
21429;DHT22;10875;50.444;30.540;2022-08-06T12:35:00;30.10;97.00
21429;DHT22;10875;50.444;30.540;2022-08-06T12:40:00;30.20;96.50
21429;DHT22;10875;50.444;30.540;2022-08-06T12:42:44;30.20;96.70
21429;DHT22;10875;50.444;30.540;2022-08-06T12:45:10;30.30;96.80
21429;DHT22;10875;50.444;30.540;2022-08-06T12:47:36;30.20;96.80
21429;DHT22;10875;50.444;30.540;2022-08-06T12:50:19;30.20;97.20
21429;DHT22;10875;50.444;30.540;2022-08-06T12:53:10;30.10;97.00
21429;DHT22;10875;50.444;30.540;2022-08-06T12:55:44;30.00;97.40
21429;DHT22;10875;50.444;30.540;2022-08-06T12:58:11;29.90;97.70
21429;DHT22;10875;50.444;30.540;2022-08-06T13:00:37;29.90;97.80
21429;DHT22;10875;50.444;30.540;2022-08-06T13:03:05;29.90;97.80
21429;DHT22;10875;50.444;30.540;2022-08-06T13:05:32;29.90;97.30
21429;DHT22;10875;50.444;30.540;2022-08-06T13:07:59;29.90;97.40
21429;DHT22;10875;50.444;30.540;2022-08-06T13:10:26;30.00;97.50
21429;DHT22;10875;50.444;30.540;2022-08-06T13:12:56;29.90;97.60
21429;DHT22;10875;50.444;30.540;2022-08-06T13:15:22;29.80;97.10
21429;DHT22;10875;50.444;30.540;2022-08-06T13:18:05;29.70;97.20
21429;DHT22;10875;50.444;30.540;2022-08-06T13:20:47;29.50;97.70
21429;DHT22;10875;50.444;30.540;2022-08-06T13:23:14;29.40;98.60
21429;DHT22;10875;50.444;30.540;2022-08-06T13:25:44;29.50;98.70
21429;DHT22;10875;50.444;30.540;2022-08-06T13:28:16;29.50;99.00
21429;DHT22;10875;50.444;30.540;2022-08-06T13:30:42;29.60;99.20
21429;DHT22;10875;50.444;30.540;2022-08-06T13:35:41;29.60;99.90
21429;DHT22;10875;50.444;30.540;2022-08-06T13:38:07;29.60;99.90
21429;DHT22;10875;50.444;30.540;2022-08-06T13:40:46;29.50;99.50
21429;DHT22;10875;50.444;30.540;2022-08-06T13:43:12;29.50;99.60
21429;DHT22;10875;50.444;30.540;2022-08-06T13:45:38;29.50;99.50
21429;DHT22;10875;50.444;30.540;2022-08-06T13:48:10;29.50;99.10
21429;DHT22;10875;50.444;30.540;2022-08-06T13:50:43;29.50;99.10
21429;DHT22;10875;50.444;30.540;2022-08-06T13:53:10;29.40;99.30
21429;DHT22;10875;50.444;30.540;2022-08-06T13:55:37;29.40;99.40
21429;DHT22;10875;50.444;30.540;2022-08-06T13:58:03;29.30;99.50
21429;DHT22;10875;50.444;30.540;2022-08-06T14:00:29;29.30;99.60
21429;DHT22;10875;50.444;30.540;2022-08-06T14:02:55;29.20;99.70
21429;DHT22;10875;50.444;30.540;2022-08-06T14:05:24;29.10;99.70
21429;DHT22;10875;50.444;30.540;2022-08-06T14:07:50;29.00;99.90
21429;DHT22;10875;50.444;30.540;2022-08-06T14:10:16;28.90;99.80
21429;DHT22;10875;50.444;30.540;2022-08-06T14:12:43;28.80;99.80
21429;DHT22;10875;50.444;30.540;2022-08-06T14:15:29;28.80;99.90
21429;DHT22;10875;50.444;30.540;2022-08-06T14:17:55;28.70;99.90
21429;DHT22;10875;50.444;30.540;2022-08-06T14:20:23;28.70;99.70
21429;DHT22;10875;50.444;30.540;2022-08-06T14:22:50;28.70;99.90
21429;DHT22;10875;50.444;30.540;2022-08-06T14:25:16;28.60;99.80
21429;DHT22;10875;50.444;30.540;2022-08-06T14:27:42;28.50;99.80
21429;DHT22;10875;50.444;30.540;2022-08-06T14:30:08;28.60;99.60
21429;DHT22;10875;50.444;30.540;2022-08-06T14:32:33;28.60;99.70
21429;DHT22;10875;50.444;30.540;2022-08-06T14:34:59;28.60;99.90
21429;DHT22;10875;50.444;30.540;2022-08-06T14:37:25;28.60;99.90
21429;DHT22;10875;50.444;30.540;2022-08-06T14:39:50;28.60;99.90
21429;DHT22;10875;50.444;30.540;2022-08-06T14:42:16;28.70;99.80
21429;DHT22;10875;50.444;30.540;2022-08-06T14:45:00;28.60;99.50
21429;DHT22;10875;50.444;30.540;2022-08-06T14:47:34;28.60;99.70
21429;DHT22;10875;50.444;30.540;2022-08-06T14:49:59;28.50;99.90
21429;DHT22;10875;50.444;30.540;2022-08-06T14:52:25;28.50;99.90
21429;DHT22;10875;50.444;30.540;2022-08-06T14:54:52;28.50;99.90
21429;DHT22;10875;50.444;30.540;2022-08-06T14:57:18;28.50;99.90
21429;DHT22;10875;50.444;30.540;2022-08-06T14:59:44;28.50;99.90
21429;DHT22;10875;50.444;30.540;2022-08-06T15:02:10;28.50;99.90
21429;DHT22;10875;50.444;30.540;2022-08-06T15:04:38;28.50;99.90
21429;DHT22;10875;50.444;30.540;2022-08-06T15:07:04;28.40;99.90
21429;DHT22;10875;50.444;30.540;2022-08-06T15:09:30;28.40;99.90
21429;DHT22;10875;50.444;30.540;2022-08-06T15:11:58;28.40;99.90
21429;DHT22;10875;50.444;30.540;2022-08-06T15:14:23;28.30;99.90
21429;DHT22;10875;50.444;30.540;2022-08-06T15:16:50;28.30;99.90
21429;DHT22;10875;50.444;30.540;2022-08-06T15:19:16;28.20;99.90
21429;DHT22;10875;50.444;30.540;2022-08-06T15:21:41;28.20;99.90
21429;DHT22;10875;50.444;30.540;2022-08-06T15:24:07;28.20;99.90
21429;DHT22;10875;50.444;30.540;2022-08-06T15:26:33;28.10;99.90
21429;DHT22;10875;50.444;30.540;2022-08-06T15:28:58;28.10;99.90
21429;DHT22;10875;50.444;30.540;2022-08-06T15:31:26;28.00;99.90
21429;DHT22;10875;50.444;30.540;2022-08-06T15:33:52;28.00;99.90
21429;DHT22;10875;50.444;30.540;2022-08-06T15:36:18;27.90;99.90
21429;DHT22;10875;50.444;30.540;2022-08-06T15:38:43;27.90;99.90
21429;DHT22;10875;50.444;30.540;2022-08-06T15:41:09;27.90;99.90
21429;DHT22;10875;50.444;30.540;2022-08-06T15:43:35;27.80;99.90
21429;DHT22;10875;50.444;30.540;2022-08-06T15:46:01;27.80;99.90
21429;DHT22;10875;50.444;30.540;2022-08-06T15:48:27;27.80;99.90
21429;DHT22;10875;50.444;30.540;2022-08-06T15:50:54;27.80;99.90
21429;DHT22;10875;50.444;30.540;2022-08-06T15:53:20;27.80;99.90
21429;DHT22;10875;50.444;30.540;2022-08-06T15:55:46;27.80;99.90
21429;DHT22;10875;50.444;30.540;2022-08-06T15:58:12;27.70;99.90
21429;DHT22;10875;50.444;30.540;2022-08-06T16:00:39;27.70;99.90
21429;DHT22;10875;50.444;30.540;2022-08-06T16:03:06;27.70;99.90
21429;DHT22;10875;50.444;30.540;2022-08-06T16:05:32;27.70;99.90
21429;DHT22;10875;50.444;30.540;2022-08-06T16:07:59;27.70;99.90
21429;DHT22;10875;50.444;30.540;2022-08-06T16:10:24;27.70;99.90
21429;DHT22;10875;50.444;30.540;2022-08-06T16:12:51;27.70;99.90
21429;DHT22;10875;50.444;30.540;2022-08-06T16:15:17;27.70;99.90
21429;DHT22;10875;50.444;30.540;2022-08-06T16:17:43;27.60;99.90
21429;DHT22;10875;50.444;30.540;2022-08-06T16:20:09;27.60;99.90
21429;DHT22;10875;50.444;30.540;2022-08-06T16:22:34;27.60;99.90
21429;DHT22;10875;50.444;30.540;2022-08-06T16:25:00;27.50;99.90
21429;DHT22;10875;50.444;30.540;2022-08-06T16:27:26;27.50;99.90